createdAt,value
2018-01-16T00:01:28.898Z,99174.53
2018-01-16T00:03:55.025Z,99176.86
2018-01-16T00:06:21.160Z,99174.22
2018-01-16T00:08:47.299Z,99176.49
2018-01-16T00:11:13.381Z,99169.02
2018-01-16T00:13:39.489Z,99157.20
2018-01-16T00:16:05.752Z,99152.86
2018-01-16T00:18:31.926Z,99150.29
2018-01-16T00:20:58.054Z,99138.81
2018-01-16T00:23:24.199Z,99141.08
2018-01-16T00:25:50.480Z,99141.55
2018-01-16T00:28:16.615Z,99149.07
2018-01-16T00:30:42.714Z,99148.19
2018-01-16T00:33:08.819Z,99134.18
2018-01-16T00:35:34.970Z,99125.37
2018-01-16T00:38:01.166Z,99129.38
2018-01-16T00:40:27.273Z,99119.76
2018-01-16T00:42:53.474Z,99120.20
2018-01-16T00:45:19.609Z,99108.39
2018-01-16T00:47:45.778Z,99110.99
2018-01-16T00:50:11.881Z,99112.82
2018-01-16T00:52:37.972Z,99105.81
2018-01-16T00:55:04.135Z,99099.72
2018-01-16T00:57:30.268Z,99097.52
2018-01-16T00:59:56.375Z,99094.04
2018-01-16T01:02:23.021Z,99094.92
2018-01-16T01:04:49.106Z,99101.52
2018-01-16T01:07:15.336Z,99107.27
2018-01-16T01:09:41.443Z,99097.97
2018-01-16T01:12:07.537Z,99098.06
2018-01-16T01:14:33.652Z,99098.47
2018-01-16T01:17:00.452Z,99102.50
2018-01-16T01:19:26.769Z,99100.81
2018-01-16T01:21:53.076Z,99101.22
2018-01-16T01:24:19.244Z,99104.36
2018-01-16T01:26:45.413Z,99113.56
2018-01-16T01:29:11.523Z,99109.67
2018-01-16T01:31:37.636Z,99102.16
2018-01-16T01:34:03.738Z,99101.31
2018-01-16T01:36:29.819Z,99107.91
2018-01-16T01:38:55.967Z,99105.81
2018-01-16T01:41:22.049Z,99115.87
2018-01-16T01:43:48.134Z,99116.72
2018-01-16T01:46:14.245Z,99110.15
2018-01-16T01:48:40.512Z,99103.48
2018-01-16T01:51:06.602Z,99100.47
2018-01-16T01:53:32.744Z,99104.91
2018-01-16T01:55:58.856Z,99095.23
2018-01-16T01:58:24.995Z,99097.36
2018-01-16T02:00:51.107Z,99099.63
2018-01-16T02:03:17.231Z,99103.66
2018-01-16T02:05:43.339Z,99098.38
2018-01-16T02:08:09.573Z,99101.92
2018-01-16T02:10:35.888Z,99094.95
2018-01-16T02:13:01.982Z,99092.72
2018-01-16T02:15:28.088Z,99093.56
2018-01-16T02:17:54.264Z,99081.69
2018-01-16T02:20:20.994Z,99082.16
2018-01-16T02:22:47.078Z,99080.34
2018-01-16T02:25:13.244Z,99083.48
2018-01-16T02:27:39.406Z,99088.22
2018-01-16T02:30:05.512Z,99072.34
2018-01-16T02:32:31.646Z,99077.63
2018-01-16T02:34:57.738Z,99083.75
2018-01-16T02:37:23.876Z,99092.52
2018-01-16T02:39:50.005Z,99094.34
2018-01-16T02:42:16.091Z,99096.04
2018-01-16T02:44:42.211Z,99092.52
2018-01-16T02:47:08.464Z,99095.97
2018-01-16T02:49:34.574Z,99094.24
2018-01-16T02:52:00.688Z,99095.59
2018-01-16T02:54:26.891Z,99092.08
2018-01-16T02:56:52.984Z,99079.73
2018-01-16T02:59:19.132Z,99069.58
2018-01-16T03:01:45.290Z,99051.09
2018-01-16T03:04:11.379Z,99045.41
2018-01-16T03:06:37.494Z,99044.09
2018-01-16T03:09:03.686Z,99032.58
2018-01-16T03:11:29.791Z,99034.82
2018-01-16T03:13:55.878Z,99029.09
2018-01-16T03:16:21.998Z,99027.67
2018-01-16T03:18:48.145Z,99021.52
2018-01-16T03:21:14.275Z,99021.58
2018-01-16T03:23:40.471Z,99017.63
2018-01-16T03:26:06.582Z,99019.86
2018-01-16T03:28:32.923Z,99020.33
2018-01-16T03:30:59.019Z,99017.63
2018-01-16T03:33:25.116Z,99010.95
2018-01-16T03:35:51.238Z,99012.20
2018-01-16T03:38:17.380Z,99026.77
2018-01-16T03:40:43.475Z,99024.08
2018-01-16T03:43:09.600Z,99025.84
2018-01-16T03:45:35.692Z,99016.20
2018-01-16T03:48:01.824Z,99017.48
2018-01-16T03:50:27.969Z,99019.25
2018-01-16T03:52:54.071Z,99020.90
2018-01-16T03:55:20.225Z,99019.14
2018-01-16T03:57:46.375Z,99011.33
2018-01-16T04:00:12.490Z,99003.81
2018-01-16T04:02:38.624Z,99006.89
2018-01-16T04:05:04.746Z,99004.66
2018-01-16T04:07:30.882Z,99004.21
2018-01-16T04:09:56.987Z,98991.94
2018-01-16T04:12:23.066Z,98987.94
2018-01-16T04:14:49.186Z,98983.97
2018-01-16T04:17:15.277Z,98967.70
2018-01-16T04:19:41.422Z,98961.54
2018-01-16T04:22:07.525Z,98964.61
2018-01-16T04:24:33.652Z,98958.09
2018-01-16T04:26:59.771Z,98948.81
2018-01-16T04:29:25.940Z,98954.09
2018-01-16T04:31:52.223Z,98948.34
2018-01-16T04:34:18.405Z,98952.34
2018-01-16T04:36:44.710Z,98951.02
2018-01-16T04:39:10.839Z,98958.09
2018-01-16T04:41:36.923Z,98953.69
2018-01-16T04:44:03.063Z,98967.33
2018-01-16T04:46:29.208Z,98962.86
2018-01-16T04:48:55.356Z,98964.98
2018-01-16T04:51:21.458Z,98967.11
2018-01-16T04:53:47.549Z,98966.74
2018-01-16T04:56:13.626Z,98967.25
2018-01-16T04:58:39.765Z,98962.42
2018-01-16T05:01:05.875Z,98963.70
2018-01-16T05:03:32.119Z,98959.23
2018-01-16T05:05:58.208Z,98977.70
2018-01-16T05:08:24.337Z,98967.11
2018-01-16T05:10:50.550Z,98971.00
2018-01-16T05:13:16.631Z,98977.05
2018-01-16T05:15:42.724Z,98979.14
2018-01-16T05:18:09.046Z,98980.02
2018-01-16T05:20:35.215Z,98975.48
2018-01-16T05:23:01.291Z,98973.20
2018-01-16T05:25:27.383Z,98967.89
2018-01-16T05:27:53.587Z,98976.14
2018-01-16T05:30:20.268Z,98973.80
2018-01-16T05:32:46.411Z,98975.89
2018-01-16T05:35:12.541Z,98993.09
2018-01-16T05:37:38.627Z,98983.30
2018-01-16T05:40:04.793Z,98988.14
2018-01-16T05:42:30.945Z,98982.38
2018-01-16T05:44:57.023Z,98967.38
2018-01-16T05:47:23.171Z,98960.81
2018-01-16T05:49:49.400Z,98965.73
2018-01-16T05:52:15.521Z,98965.73
2018-01-16T05:54:41.630Z,98980.33
2018-01-16T05:57:07.777Z,98967.56
2018-01-16T05:59:33.944Z,98969.39
2018-01-16T06:02:00.096Z,98967.16
2018-01-16T06:04:26.196Z,98971.08
2018-01-16T06:06:52.318Z,98979.00
2018-01-16T06:09:18.459Z,98981.20
2018-01-16T06:11:44.586Z,98982.05
2018-01-16T06:14:10.726Z,98967.53
2018-01-16T06:16:36.822Z,98983.38
2018-01-16T06:19:03.536Z,98975.08
2018-01-16T06:21:29.691Z,98980.69
2018-01-16T06:23:55.778Z,98994.30
2018-01-16T06:26:21.915Z,98991.22
2018-01-16T06:28:48.071Z,99004.39
2018-01-16T06:31:14.164Z,99003.98
2018-01-16T06:33:40.304Z,99022.47
2018-01-16T06:36:06.431Z,99020.64
2018-01-16T06:38:32.595Z,99021.48
2018-01-16T06:40:58.699Z,99023.58
2018-01-16T06:43:24.820Z,99012.53
2018-01-16T06:45:51.030Z,99025.30
2018-01-16T06:48:17.181Z,99021.23
2018-01-16T06:50:43.307Z,99026.07
2018-01-16T06:53:09.445Z,99018.52
2018-01-16T06:55:35.655Z,99033.88
2018-01-16T06:58:02.385Z,99034.77
2018-01-16T07:00:28.538Z,99041.33
2018-01-16T07:02:54.746Z,99048.41
2018-01-16T07:05:20.898Z,99050.50
2018-01-16T07:07:46.990Z,99051.28
2018-01-16T07:10:13.172Z,99052.67
2018-01-16T07:12:39.915Z,99056.56
2018-01-16T07:15:06.028Z,99074.65
2018-01-16T07:17:32.168Z,99066.25
2018-01-16T07:19:59.016Z,99069.36
2018-01-16T07:22:25.116Z,99073.33
2018-01-16T07:24:51.277Z,99081.63
2018-01-16T07:27:17.395Z,99089.98
2018-01-16T07:29:43.542Z,99087.64
2018-01-16T07:32:09.707Z,99086.83
2018-01-16T07:34:35.849Z,99098.65
2018-01-16T07:37:01.971Z,99088.13
2018-01-16T07:39:28.121Z,99099.64
2018-01-16T07:41:54.273Z,99116.33
2018-01-16T07:44:20.427Z,99112.88
2018-01-16T07:46:46.565Z,99115.96
2018-01-16T07:49:12.714Z,99120.95
2018-01-16T07:51:38.882Z,99133.95
2018-01-16T07:54:04.964Z,99125.55
2018-01-16T07:56:31.139Z,99127.41
2018-01-16T07:58:57.286Z,99138.75
2018-01-16T08:01:23.382Z,99144.41
2018-01-16T08:03:49.568Z,99148.44
2018-01-16T08:06:15.686Z,99150.16
2018-01-16T08:08:41.842Z,99163.30
2018-01-16T08:11:07.930Z,99165.06
2018-01-16T08:13:34.072Z,99167.38
2018-01-16T08:16:00.242Z,99181.97
2018-01-16T08:18:26.376Z,99188.75
2018-01-16T08:20:52.642Z,99187.50
2018-01-16T08:23:18.735Z,99185.30
2018-01-16T08:25:44.857Z,99187.42
2018-01-16T08:28:10.984Z,99185.63
2018-01-16T08:30:37.132Z,99192.64
2018-01-16T08:33:03.959Z,99181.97
2018-01-16T08:35:30.074Z,99188.80
2018-01-16T08:37:56.187Z,99182.90
2018-01-16T08:40:22.616Z,99172.38
2018-01-16T08:42:48.720Z,99172.67
2018-01-16T08:45:14.839Z,99182.66
2018-01-16T08:47:41.111Z,99196.47
2018-01-16T08:50:07.272Z,99207.84
2018-01-16T08:52:34.283Z,99203.84
2018-01-16T08:55:00.410Z,99205.58
2018-01-16T08:57:26.512Z,99212.59
2018-01-16T08:59:52.671Z,99209.98
2018-01-16T09:02:18.860Z,99215.73
2018-01-16T09:04:45.030Z,99214.69
2018-01-16T09:07:11.132Z,99225.22
2018-01-16T09:09:37.290Z,99225.63
2018-01-16T09:12:03.437Z,99237.42
2018-01-16T09:14:29.525Z,99243.11
2018-01-16T09:16:55.647Z,99235.98
2018-01-16T09:19:22.355Z,99241.63
2018-01-16T09:21:48.549Z,99247.89
2018-01-16T09:24:14.700Z,99244.80
2018-01-16T09:26:40.830Z,99253.01
2018-01-16T09:29:07.035Z,99261.09
2018-01-16T09:31:33.169Z,99266.50
2018-01-16T09:33:59.298Z,99277.20
2018-01-16T09:36:25.428Z,99276.80
2018-01-16T09:38:51.569Z,99280.98
2018-01-16T09:41:17.692Z,99277.85
2018-01-16T09:43:43.957Z,99287.59
2018-01-16T09:46:10.059Z,99302.27
2018-01-16T09:48:36.943Z,99297.67
2018-01-16T09:51:03.161Z,99290.80
2018-01-16T09:53:29.264Z,99280.06
2018-01-16T09:55:55.423Z,99278.63
2018-01-16T09:58:21.542Z,99296.42
2018-01-16T10:00:47.951Z,99297.92
2018-01-16T10:03:14.675Z,99303.39
2018-01-16T10:05:40.829Z,99309.81
2018-01-16T10:08:09.728Z,99310.47
2018-01-16T10:10:35.948Z,99317.19
2018-01-16T10:13:02.074Z,99319.94
2018-01-16T10:15:28.171Z,99326.62
2018-01-16T10:17:54.304Z,99324.83
2018-01-16T10:20:20.460Z,99327.84
2018-01-16T10:22:46.602Z,99325.67
2018-01-16T10:25:12.757Z,99341.58
2018-01-16T10:27:38.994Z,99331.41
2018-01-16T10:30:05.132Z,99343.75
2018-01-16T10:32:31.347Z,99338.50
2018-01-16T10:34:57.503Z,99331.11
2018-01-16T10:37:23.591Z,99343.59
2018-01-16T10:39:49.925Z,99339.35
2018-01-16T10:42:16.034Z,99346.98
2018-01-16T10:44:42.140Z,99334.88
2018-01-16T10:47:08.274Z,99344.06
2018-01-16T10:49:34.957Z,99338.81
2018-01-16T10:52:01.094Z,99324.97
2018-01-16T10:54:27.232Z,99332.02
2018-01-16T10:56:53.326Z,99319.61
2018-01-16T10:59:19.464Z,99318.66
2018-01-16T11:01:45.667Z,99325.20
2018-01-16T11:04:11.764Z,99328.18
2018-01-16T11:06:38.813Z,99313.12
2018-01-16T11:09:05.158Z,99317.83
2018-01-16T11:11:31.296Z,99335.36
2018-01-16T11:13:57.389Z,99325.69
2018-01-16T11:16:23.527Z,99330.64
2018-01-16T11:18:49.727Z,99324.41
2018-01-16T11:21:16.907Z,99321.31
2018-01-16T11:23:43.110Z,99327.94
2018-01-16T11:26:09.254Z,99315.14
2018-01-16T11:28:35.368Z,99321.39
2018-01-16T11:31:02.066Z,99328.52
2018-01-16T11:33:28.211Z,99326.78
2018-01-16T11:35:54.302Z,99322.34
2018-01-16T11:38:20.463Z,99322.37
2018-01-16T11:40:46.631Z,99317.53
2018-01-16T11:43:12.734Z,99317.02
2018-01-16T11:45:38.885Z,99317.97
2018-01-16T11:48:04.994Z,99325.50
2018-01-16T11:50:31.202Z,99336.48
2018-01-16T11:52:57.377Z,99341.37
2018-01-16T11:55:23.473Z,99321.56
2018-01-16T11:57:49.719Z,99324.69
2018-01-16T12:00:15.901Z,99314.98
2018-01-16T12:02:42.085Z,99324.65
2018-01-16T12:05:08.216Z,99330.38
2018-01-16T12:07:34.384Z,99324.28
2018-01-16T12:10:00.520Z,99327.91
2018-01-16T12:12:26.641Z,99332.87
2018-01-16T12:14:52.769Z,99334.19
2018-01-16T12:17:18.848Z,99325.85
2018-01-16T12:19:45.135Z,99318.36
2018-01-16T12:22:11.228Z,99319.78
2018-01-16T12:24:37.331Z,99319.08
2018-01-16T12:27:03.460Z,99302.33
2018-01-16T12:29:30.148Z,99314.27
2018-01-16T12:31:56.338Z,99310.33
2018-01-16T12:34:22.434Z,99322.30
2018-01-16T12:36:48.563Z,99315.39
2018-01-16T12:39:14.670Z,99303.48
2018-01-16T12:41:40.828Z,99302.44
2018-01-16T12:44:06.961Z,99310.73
2018-01-16T12:46:33.059Z,99305.45
2018-01-16T12:48:59.189Z,99307.84
2018-01-16T12:51:25.342Z,99302.34
2018-01-16T12:53:51.468Z,99306.92
2018-01-16T12:56:17.564Z,99318.98
2018-01-16T12:58:43.811Z,99314.35
2018-01-16T13:01:09.963Z,99319.67
2018-01-16T13:03:36.119Z,99305.67
2018-01-16T13:06:02.217Z,99299.55
2018-01-16T13:08:28.324Z,99305.71
2018-01-16T13:10:55.049Z,99304.94
2018-01-16T13:13:21.159Z,99295.27
2018-01-16T13:15:47.291Z,99294.80
2018-01-16T13:18:13.412Z,99286.91
2018-01-16T13:20:39.733Z,99295.27
2018-01-16T13:23:05.850Z,99290.80
2018-01-16T13:25:31.947Z,99280.26
2018-01-16T13:27:58.088Z,99285.65
2018-01-16T13:30:24.273Z,99292.33
2018-01-16T13:32:50.465Z,99301.51
2018-01-16T13:35:16.558Z,99303.00
2018-01-16T13:37:42.736Z,99290.13
2018-01-16T13:40:08.916Z,99292.19
2018-01-16T13:42:35.029Z,99305.95
2018-01-16T13:45:01.206Z,99303.26
2018-01-16T13:47:27.318Z,99292.89
2018-01-16T13:49:53.520Z,99305.05
2018-01-16T13:52:19.700Z,99296.41
2018-01-16T13:54:45.799Z,99300.77
2018-01-16T13:57:11.896Z,99299.42
2018-01-16T13:59:38.078Z,99296.64
2018-01-16T14:02:04.268Z,99294.78
2018-01-16T14:04:30.406Z,99293.73
2018-01-16T14:06:56.658Z,99291.34
2018-01-16T14:09:22.761Z,99283.78
2018-01-16T14:11:48.927Z,99290.42
2018-01-16T14:14:15.143Z,99288.73
2018-01-16T14:16:41.235Z,99295.77
2018-01-16T14:19:07.388Z,99296.69
2018-01-16T14:21:33.543Z,99283.11
2018-01-16T14:23:59.721Z,99279.58
2018-01-16T14:26:25.841Z,99287.10
2018-01-16T14:28:51.953Z,99287.16
2018-01-16T14:31:18.928Z,99284.97
2018-01-16T14:33:45.074Z,99283.61
2018-01-16T14:36:11.205Z,99287.98
2018-01-16T14:38:37.349Z,99285.68
2018-01-16T14:41:03.508Z,99278.84
2018-01-16T14:43:29.636Z,99286.63
2018-01-16T14:45:55.749Z,99296.29
2018-01-16T14:48:21.955Z,99292.56
2018-01-16T14:50:48.140Z,99298.29
2018-01-16T14:53:14.254Z,99294.83
2018-01-16T14:55:40.350Z,99302.39
2018-01-16T14:58:06.519Z,99289.92
2018-01-16T15:00:32.668Z,99292.53
2018-01-16T15:02:58.799Z,99291.38
2018-01-16T15:05:24.982Z,99307.70
2018-01-16T15:07:51.084Z,99300.22
2018-01-16T15:10:17.273Z,99300.72
2018-01-16T15:12:43.358Z,99302.93
2018-01-16T15:15:09.482Z,99295.51
2018-01-16T15:17:35.609Z,99288.36
2018-01-16T15:20:01.775Z,99290.16
2018-01-16T15:22:27.925Z,99290.59
2018-01-16T15:24:54.375Z,99297.17
2018-01-16T15:27:20.513Z,99305.60
2018-01-16T15:29:46.616Z,99301.23
2018-01-16T15:32:12.791Z,99295.00
2018-01-16T15:34:38.893Z,99294.97
2018-01-16T15:37:05.005Z,99302.02
2018-01-16T15:39:31.220Z,99299.84
2018-01-16T15:41:57.418Z,99303.34
2018-01-16T15:44:23.523Z,99292.80
2018-01-16T15:46:49.616Z,99300.80
2018-01-16T15:49:15.789Z,99306.11
2018-01-16T15:51:42.004Z,99301.33
2018-01-16T15:54:08.100Z,99300.89
2018-01-16T15:56:34.221Z,99303.20
2018-01-16T15:59:00.353Z,99300.24
2018-01-16T16:01:26.524Z,99303.77
2018-01-16T16:03:52.788Z,99302.11
2018-01-16T16:06:19.059Z,99308.27
2018-01-16T16:08:45.338Z,99315.45
2018-01-16T16:11:11.544Z,99300.58
2018-01-16T16:13:37.662Z,99298.41
2018-01-16T16:16:03.822Z,99294.95
2018-01-16T16:18:29.988Z,99297.25
2018-01-16T16:20:56.158Z,99297.69
2018-01-16T16:23:22.273Z,99301.75
2018-01-16T16:25:48.389Z,99294.70
2018-01-16T16:28:14.684Z,99301.38
2018-01-16T16:30:40.870Z,99296.19
2018-01-16T16:33:07.056Z,99299.71
2018-01-16T16:35:33.157Z,99282.13
2018-01-16T16:37:59.256Z,99284.77
2018-01-16T16:40:25.407Z,99277.80
2018-01-16T16:42:51.604Z,99281.32
2018-01-16T16:45:17.692Z,99283.55
2018-01-16T16:47:43.885Z,99286.23
2018-01-16T16:50:10.025Z,99284.06
2018-01-16T16:52:36.260Z,99287.61
2018-01-16T16:55:02.420Z,99280.23
2018-01-16T16:57:28.493Z,99267.47
2018-01-16T16:59:54.592Z,99275.89
2018-01-16T17:02:20.762Z,99262.25
2018-01-16T17:04:46.856Z,99260.99
2018-01-16T17:07:13.096Z,99260.66
2018-01-16T17:09:39.263Z,99262.95
2018-01-16T17:12:05.461Z,99260.38
2018-01-16T17:14:31.584Z,99249.41
2018-01-16T17:16:57.690Z,99241.55
2018-01-16T17:19:23.840Z,99242.72
2018-01-16T17:21:49.981Z,99237.60
2018-01-16T17:24:16.101Z,99240.74
2018-01-16T17:26:42.238Z,99235.88
2018-01-16T17:29:08.363Z,99233.67
2018-01-16T17:31:34.622Z,99238.05
2018-01-16T17:34:00.885Z,99243.25
2018-01-16T17:36:26.975Z,99240.23
2018-01-16T17:38:53.077Z,99241.09
2018-01-16T17:41:19.283Z,99233.07
2018-01-16T17:43:45.401Z,99237.50
2018-01-16T17:46:11.519Z,99234.42
2018-01-16T17:48:37.660Z,99223.83
2018-01-16T17:51:03.840Z,99222.95
2018-01-16T17:53:29.987Z,99226.00
2018-01-16T17:55:56.283Z,99225.88
2018-01-16T17:58:22.389Z,99222.86
2018-01-16T18:00:48.517Z,99216.66
2018-01-16T18:03:14.699Z,99211.48
2018-01-16T18:05:41.461Z,99202.58
2018-01-16T18:08:07.607Z,99215.81
2018-01-16T18:10:33.913Z,99216.70
2018-01-16T18:13:00.093Z,99212.70
2018-01-16T18:15:26.216Z,99226.34
2018-01-16T18:17:52.536Z,99220.25
2018-01-16T18:20:19.261Z,99225.53
2018-01-16T18:22:45.463Z,99224.69
2018-01-16T18:25:11.596Z,99225.16
2018-01-16T18:27:37.884Z,99225.16
2018-01-16T18:30:04.017Z,99225.59
2018-01-16T18:32:30.204Z,99220.78
2018-01-16T18:34:56.306Z,99217.30
2018-01-16T18:37:22.426Z,99212.02
2018-01-16T18:39:48.617Z,99209.41
2018-01-16T18:42:14.803Z,99212.90
2018-01-16T18:44:40.906Z,99217.73
2018-01-16T18:47:07.056Z,99219.06
2018-01-16T18:49:33.183Z,99213.78
2018-01-16T18:51:59.410Z,99219.88
2018-01-16T18:54:25.538Z,99215.09
2018-01-16T18:56:51.646Z,99213.75
2018-01-16T18:59:17.785Z,99211.11
2018-01-16T19:01:43.956Z,99212.02
2018-01-16T19:04:10.134Z,99204.06
2018-01-16T19:06:36.509Z,99211.07
2018-01-16T19:09:02.732Z,99203.69
2018-01-16T19:11:28.949Z,99200.98
2018-01-16T19:13:55.052Z,99199.98
2018-01-16T19:16:21.219Z,99192.02
2018-01-16T19:18:47.541Z,99190.27
2018-01-16T19:21:13.680Z,99189.76
2018-01-16T19:23:39.874Z,99186.55
2018-01-16T19:26:06.076Z,99182.65
2018-01-16T19:28:32.211Z,99168.94
2018-01-16T19:30:58.336Z,99173.75
2018-01-16T19:33:24.543Z,99176.80
2018-01-16T19:35:50.655Z,99177.27
2018-01-16T19:38:16.763Z,99172.42
2018-01-16T19:40:42.905Z,99166.70
2018-01-16T19:43:09.053Z,99166.61
2018-01-16T19:45:36.032Z,99169.21
2018-01-16T19:48:02.167Z,99166.20
2018-01-16T19:50:28.283Z,99160.88
2018-01-16T19:52:54.470Z,99161.77
2018-01-16T19:55:20.626Z,99156.48
2018-01-16T19:57:46.735Z,99164.00
2018-01-16T20:00:12.969Z,99164.38
2018-01-16T20:02:39.336Z,99161.36
2018-01-16T20:05:05.460Z,99160.82
2018-01-16T20:07:31.585Z,99156.31
2018-01-16T20:09:57.859Z,99144.47
2018-01-16T20:12:24.182Z,99145.31
2018-01-16T20:14:50.382Z,99148.83
2018-01-16T20:17:16.498Z,99145.34
2018-01-16T20:19:42.782Z,99147.95
2018-01-16T20:22:09.020Z,99147.52
2018-01-16T20:24:35.170Z,99135.19
2018-01-16T20:27:01.490Z,99134.75
2018-01-16T20:29:28.265Z,99145.66
2018-01-16T20:31:54.552Z,99133.36
2018-01-16T20:34:20.725Z,99129.74
2018-01-16T20:36:47.300Z,99129.27
2018-01-16T20:39:13.408Z,99130.11
2018-01-16T20:41:39.565Z,99123.06
2018-01-16T20:44:05.812Z,99120.02
2018-01-16T20:46:31.969Z,99124.42
2018-01-16T20:48:58.104Z,99118.70
2018-01-16T20:51:24.212Z,99125.41
2018-01-16T20:53:50.561Z,99126.36
2018-01-16T20:56:16.664Z,99132.98
2018-01-16T20:58:42.780Z,99129.09
2018-01-16T21:01:08.940Z,99131.87
2018-01-16T21:03:35.122Z,99129.64
2018-01-16T21:06:01.241Z,99127.91
2018-01-16T21:08:27.383Z,99126.26
2018-01-16T21:10:53.573Z,99110.05
2018-01-16T21:13:19.804Z,99108.80
2018-01-16T21:15:45.946Z,99099.66
2018-01-16T21:18:12.063Z,99094.71
2018-01-16T21:20:38.220Z,99095.80
2018-01-16T21:23:04.413Z,99094.41
2018-01-16T21:25:30.563Z,99094.41
2018-01-16T21:27:56.694Z,99085.20
2018-01-16T21:30:22.820Z,99085.10
2018-01-16T21:32:48.985Z,99091.59
2018-01-16T21:35:15.143Z,99096.37
2018-01-16T21:37:41.501Z,99101.08
2018-01-16T21:40:07.667Z,99099.61
2018-01-16T21:42:33.838Z,99092.50
2018-01-16T21:44:59.960Z,99091.55
2018-01-16T21:47:26.071Z,99095.95
2018-01-16T21:49:52.188Z,99085.39
2018-01-16T21:52:18.310Z,99093.17
2018-01-16T21:54:44.505Z,99095.81
2018-01-16T21:57:10.607Z,99092.88
2018-01-16T21:59:36.746Z,99083.70
2018-01-16T22:02:02.927Z,99081.57
2018-01-16T22:04:29.087Z,99085.13
2018-01-16T22:06:55.187Z,99081.67
2018-01-16T22:09:21.387Z,99086.11
2018-01-16T22:11:47.478Z,99086.52
2018-01-16T22:14:13.691Z,99092.27
2018-01-16T22:16:39.781Z,99100.73
2018-01-16T22:19:05.920Z,99098.98
2018-01-16T22:21:32.018Z,99102.59
2018-01-16T22:23:58.341Z,99108.35
2018-01-16T22:26:24.444Z,99113.67
2018-01-16T22:28:50.597Z,99122.43
2018-01-16T22:31:16.689Z,99122.06
2018-01-16T22:33:42.863Z,99127.30
2018-01-16T22:36:09.097Z,99124.33
2018-01-16T22:38:35.194Z,99127.92
2018-01-16T22:41:01.302Z,99138.51
2018-01-16T22:43:27.468Z,99136.81
2018-01-16T22:45:53.591Z,99137.33
2018-01-16T22:48:19.718Z,99134.34
2018-01-16T22:50:45.915Z,99146.73
2018-01-16T22:53:12.358Z,99144.97
2018-01-16T22:55:38.455Z,99147.14
2018-01-16T22:58:04.568Z,99144.09
2018-01-16T23:00:30.704Z,99149.47
2018-01-16T23:02:56.950Z,99153.43
2018-01-16T23:05:23.045Z,99161.48
2018-01-16T23:07:49.134Z,99170.81
2018-01-16T23:10:15.269Z,99167.36
2018-01-16T23:12:41.385Z,99166.04
2018-01-16T23:15:07.533Z,99171.42
2018-01-16T23:17:33.743Z,99168.30
2018-01-16T23:20:00.013Z,99166.11
2018-01-16T23:22:26.124Z,99174.50
2018-01-16T23:24:52.455Z,99167.45
2018-01-16T23:27:18.569Z,99168.38
2018-01-16T23:29:44.652Z,99182.78
2018-01-16T23:32:10.800Z,99180.59
2018-01-16T23:34:36.932Z,99184.11
2018-01-16T23:37:03.028Z,99184.52
2018-01-16T23:39:29.246Z,99182.78
2018-01-16T23:41:55.346Z,99183.80
2018-01-16T23:44:21.555Z,99183.39
2018-01-16T23:46:47.647Z,99200.64
2018-01-16T23:49:13.773Z,99204.25
2018-01-16T23:51:39.907Z,99205.16
2018-01-16T23:54:06.042Z,99205.20
2018-01-16T23:56:32.143Z,99192.85
2018-01-16T23:58:58.401Z,99201.30
